Time;durP1;ratioP1;P1;durP2;ratioP2;P2;SDS_P1;SDS_P2;PMS_P1;PMS_P2;Temp;Humidity;BMP_temperature;BMP_pressure;BME280_temperature;BME280_humidity;BME280_pressure;Samples;Min_cycle;Max_cycle;Signal;HPM_P1;HPM_P2
2021/12/03 00:01:06;;;;;;;8.60;7.70;;;;;;;;;;4959689;28;20137;-72
2021/12/03 00:03:34;;;;;;;8.32;7.32;;;;;;;;;;4975003;28;20042;-72
2021/12/03 00:06:01;;;;;;;8.00;7.20;;;;;;;;;;4960848;28;20042;-73
2021/12/03 00:08:29;;;;;;;7.00;6.30;;;;;;;;;;4981518;28;20959;-73
2021/12/03 00:10:59;;;;;;;7.00;6.30;;;;;;;;;;4974488;28;20105;-73
2021/12/03 00:13:28;;;;;;;8.45;6.80;;;;;;;;;;4975461;28;20125;-73
2021/12/03 00:15:57;;;;;;;7.70;6.90;;;;;;;;;;4975200;28;20283;-72
2021/12/03 00:18:25;;;;;;;8.02;6.95;;;;;;;;;;4957927;28;20050;-73
2021/12/03 00:20:53;;;;;;;8.70;7.78;;;;;;;;;;4925343;29;20294;-72
2021/12/03 00:23:22;;;;;;;8.95;7.85;;;;;;;;;;4925451;29;20131;-73
2021/12/03 00:25:49;;;;;;;7.60;6.75;;;;;;;;;;4924297;29;20416;-73
2021/12/03 00:28:16;;;;;;;8.43;7.40;;;;;;;;;;4923849;29;20427;-73
2021/12/03 00:30:44;;;;;;;7.93;7.05;;;;;;;;;;4924519;29;20147;-73
2021/12/03 00:33:12;;;;;;;8.07;7.35;;;;;;;;;;4925397;29;20047;-73
2021/12/03 00:35:39;;;;;;;7.63;6.70;;;;;;;;;;4924277;29;20091;-73
2021/12/03 00:38:07;;;;;;;7.22;6.60;;;;;;;;;;4923590;29;20043;-73
2021/12/03 00:40:37;;;;;;;6.75;6.03;;;;;;;;;;4908707;29;20464;-73
2021/12/03 00:43:05;;;;;;;7.57;6.88;;;;;;;;;;4923997;29;20052;-73
2021/12/03 00:45:33;;;;;;;7.57;6.78;;;;;;;;;;4920733;29;20047;-73
2021/12/03 00:48:01;;;;;;;6.97;6.28;;;;;;;;;;4921026;29;20348;-73
2021/12/03 00:50:29;;;;;;;7.13;6.43;;;;;;;;;;4919879;29;20142;-74
2021/12/03 00:53:00;;;;;;;6.63;6.03;;;;;;;;;;4961955;28;20086;-73
2021/12/03 00:55:28;;;;;;;6.55;5.95;;;;;;;;;;4976388;28;20424;-73
2021/12/03 00:57:55;;;;;;;8.65;7.43;;;;;;;;;;4974358;28;20443;-73
2021/12/03 01:00:28;;;;;;;7.50;6.68;;;;;;;;;;4960603;28;20089;-73
2021/12/03 01:02:56;;;;;;;7.40;6.65;;;;;;;;;;4975379;28;20403;-73
2021/12/03 01:05:24;;;;;;;7.32;6.63;;;;;;;;;;4976778;28;20034;-73
2021/12/03 01:07:52;;;;;;;8.95;6.93;;;;;;;;;;4973556;28;20062;-73
2021/12/03 01:10:20;;;;;;;7.20;6.60;;;;;;;;;;4989432;28;20034;-73
2021/12/03 01:12:48;;;;;;;7.78;6.90;;;;;;;;;;4990886;28;20054;-73
2021/12/03 01:15:17;;;;;;;7.43;6.40;;;;;;;;;;4972909;28;20455;-73
2021/12/03 01:17:45;;;;;;;6.72;6.07;;;;;;;;;;4979979;28;20066;-73
2021/12/03 01:20:13;;;;;;;5.72;4.75;;;;;;;;;;4997295;23;20580;-75
2021/12/03 01:22:41;;;;;;;6.47;5.57;;;;;;;;;;5000889;28;20381;-75
2021/12/03 01:25:10;;;;;;;6.05;5.43;;;;;;;;;;4983911;28;20105;-78
2021/12/03 01:27:38;;;;;;;6.97;6.28;;;;;;;;;;4987219;28;20049;-76
2021/12/03 01:30:07;;;;;;;8.23;7.15;;;;;;;;;;4986970;28;20142;-74
2021/12/03 01:32:35;;;;;;;7.38;6.13;;;;;;;;;;4987417;28;20151;-75
2021/12/03 01:35:02;;;;;;;7.80;6.97;;;;;;;;;;4987780;28;20097;-77
2021/12/03 01:37:30;;;;;;;7.40;6.10;;;;;;;;;;4985354;28;20042;-78
2021/12/03 01:39:57;;;;;;;8.13;5.85;;;;;;;;;;4986448;28;20050;-75
2021/12/03 01:42:25;;;;;;;7.22;6.53;;;;;;;;;;4986371;28;20158;-76
2021/12/03 01:44:52;;;;;;;5.30;4.80;;;;;;;;;;4986993;28;20387;-73
2021/12/03 01:47:19;;;;;;;5.85;5.35;;;;;;;;;;4970445;28;20074;-75
2021/12/03 01:49:47;;;;;;;6.40;5.80;;;;;;;;;;4970547;28;20078;-75
2021/12/03 01:52:14;;;;;;;6.22;4.63;;;;;;;;;;4986606;28;20043;-74
2021/12/03 01:54:42;;;;;;;5.63;4.93;;;;;;;;;;4985034;28;20054;-77
2021/12/03 01:57:09;;;;;;;4.90;4.40;;;;;;;;;;4979312;28;20100;-76
2021/12/03 01:59:36;;;;;;;4.93;4.43;;;;;;;;;;4992896;28;20066;-74
2021/12/03 02:02:04;;;;;;;6.80;6.05;;;;;;;;;;5005516;28;20041;-76
2021/12/03 02:04:32;;;;;;;6.03;4.78;;;;;;;;;;4999230;28;20039;-76
2021/12/03 02:06:59;;;;;;;6.28;5.00;;;;;;;;;;4994567;28;20046;-75
2021/12/03 02:09:26;;;;;;;6.00;5.45;;;;;;;;;;4994212;28;20053;-76
2021/12/03 02:11:54;;;;;;;5.95;5.45;;;;;;;;;;5002364;28;20073;-76
2021/12/03 02:14:21;;;;;;;6.28;5.45;;;;;;;;;;5005628;28;20450;-75
2021/12/03 05:31:38;;;;;;;13.65;9.48;;;;;;;;;;4996037;28;20121;-75
2021/12/03 05:34:25;;;;;;;16.50;9.70;;;;;;;;;;4991777;28;20212;-75
2021/12/03 05:36:52;;;;;;;13.85;9.10;;;;;;;;;;5002089;28;20077;-75
2021/12/03 05:39:20;;;;;;;15.60;9.60;;;;;;;;;;4960547;28;20062;-75
2021/12/03 05:41:47;;;;;;;17.77;10.70;;;;;;;;;;5001094;28;20084;-75
2021/12/03 05:44:15;;;;;;;15.63;10.27;;;;;;;;;;4990606;28;20038;-75
2021/12/03 05:46:42;;;;;;;16.92;11.55;;;;;;;;;;4990560;28;20080;-75
2021/12/03 05:49:10;;;;;;;16.67;10.63;;;;;;;;;;4994061;28;20117;-75
2021/12/03 05:51:37;;;;;;;13.75;10.68;;;;;;;;;;4987841;28;20046;-76
2021/12/03 05:54:04;;;;;;;15.35;10.82;;;;;;;;;;5000672;28;20124;-75
2021/12/03 05:56:32;;;;;;;13.98;9.90;;;;;;;;;;5005138;28;20467;-75
2021/12/03 05:59:00;;;;;;;14.23;10.52;;;;;;;;;;5002991;28;20109;-76
2021/12/03 06:01:27;;;;;;;13.27;10.70;;;;;;;;;;5003675;28;20128;-75
2021/12/03 06:03:55;;;;;;;13.18;9.70;;;;;;;;;;4989745;28;20038;-75
2021/12/03 06:06:23;;;;;;;18.50;11.50;;;;;;;;;;5004075;28;20096;-77
2021/12/03 06:08:50;;;;;;;18.13;12.18;;;;;;;;;;5005178;28;20208;-75
2021/12/03 06:11:18;;;;;;;18.27;11.35;;;;;;;;;;4985042;28;20117;-74
2021/12/03 06:13:45;;;;;;;13.68;10.20;;;;;;;;;;5000281;28;20046;-75
2021/12/03 06:16:14;;;;;;;15.93;11.15;;;;;;;;;;4989279;28;20073;-75
2021/12/03 06:18:41;;;;;;;12.38;10.63;;;;;;;;;;5012070;28;20038;-75
2021/12/03 06:21:10;;;;;;;19.40;11.93;;;;;;;;;;5006020;28;20088;-77
2021/12/03 06:23:37;;;;;;;15.00;11.02;;;;;;;;;;4988154;28;20509;-77
2021/12/03 06:26:05;;;;;;;13.52;10.45;;;;;;;;;;4997946;28;20769;-77
2021/12/03 06:28:33;;;;;;;15.00;10.82;;;;;;;;;;5006234;28;20076;-75
2021/12/03 06:31:01;;;;;;;13.60;11.00;;;;;;;;;;5005852;28;20392;-75
2021/12/03 06:33:28;;;;;;;14.90;9.45;;;;;;;;;;4998559;28;20105;-75
2021/12/03 06:35:56;;;;;;;15.55;11.55;;;;;;;;;;4995753;28;20124;-76
2021/12/03 06:38:23;;;;;;;11.27;9.50;;;;;;;;;;5007710;28;20232;-75
2021/12/03 06:40:53;;;;;;;14.60;10.90;;;;;;;;;;5006738;28;20061;-76
2021/12/03 06:43:20;;;;;;;14.68;10.23;;;;;;;;;;5007921;28;20147;-76
2021/12/03 06:45:48;;;;;;;15.13;10.63;;;;;;;;;;5004166;28;20477;-78
2021/12/03 06:48:16;;;;;;;15.00;11.82;;;;;;;;;;4991352;28;20125;-75
2021/12/03 06:50:44;;;;;;;13.30;10.88;;;;;;;;;;4993786;28;20051;-75
2021/12/03 06:53:15;;;;;;;14.50;10.43;;;;;;;;;;4990942;28;20050;-74
2021/12/03 06:55:55;;;;;;;14.38;9.98;;;;;;;;;;4990172;28;20129;-74
2021/12/03 06:58:23;;;;;;;11.43;10.00;;;;;;;;;;5007677;28;20117;-76
2021/12/03 07:00:51;;;;;;;12.75;10.20;;;;;;;;;;5003702;28;21206;-76
2021/12/03 07:03:19;;;;;;;12.32;10.13;;;;;;;;;;5001878;28;20597;-77
2021/12/03 07:05:47;;;;;;;11.38;7.22;;;;;;;;;;4973277;28;20132;-77
2021/12/03 07:08:15;;;;;;;11.55;9.65;;;;;;;;;;4994929;28;20061;-75
2021/12/03 07:10:42;;;;;;;10.85;9.00;;;;;;;;;;5004266;28;20061;-76
2021/12/03 07:13:10;;;;;;;12.05;8.68;;;;;;;;;;4998140;28;20054;-77
2021/12/03 07:15:38;;;;;;;11.48;8.77;;;;;;;;;;4996782;28;20034;-74
2021/12/03 07:18:05;;;;;;;11.25;8.75;;;;;;;;;;4981702;28;20132;-77
2021/12/03 07:20:33;;;;;;;9.35;8.23;;;;;;;;;;4996532;28;20049;-75
2021/12/03 07:23:00;;;;;;;11.75;8.73;;;;;;;;;;5005414;28;20081;-77
2021/12/03 07:25:28;;;;;;;10.43;9.32;;;;;;;;;;5003260;28;20076;-75
2021/12/03 07:27:55;;;;;;;11.77;9.52;;;;;;;;;;5005077;28;20065;-75
2021/12/03 07:30:22;;;;;;;10.70;8.90;;;;;;;;;;5000286;28;20124;-77
2021/12/03 07:32:50;;;;;;;6.22;4.93;;;;;;;;;;5000004;28;20096;-75
2021/12/03 07:35:18;;;;;;;8.85;7.10;;;;;;;;;;4991827;28;20141;-78
2021/12/03 07:37:45;;;;;;;10.23;8.23;;;;;;;;;;4992484;28;20050;-76
2021/12/03 07:40:13;;;;;;;9.63;8.13;;;;;;;;;;4992469;28;20394;-75
2021/12/03 07:42:41;;;;;;;12.10;8.27;;;;;;;;;;4972987;28;20039;-76
2021/12/03 07:45:09;;;;;;;11.82;7.22;;;;;;;;;;4998866;28;20076;-75
2021/12/03 07:47:38;;;;;;;9.15;7.50;;;;;;;;;;4979492;28;20038;-75
2021/12/03 07:50:07;;;;;;;11.98;7.75;;;;;;;;;;5003267;28;20137;-76
2021/12/03 07:52:35;;;;;;;8.27;6.30;;;;;;;;;;4988648;28;20041;-77
2021/12/03 07:55:03;;;;;;;8.55;6.57;;;;;;;;;;4972427;28;20470;-78
2021/12/03 07:57:31;;;;;;;12.70;6.78;;;;;;;;;;4989788;28;20050;-76
2021/12/03 07:59:58;;;;;;;9.05;6.75;;;;;;;;;;4957186;28;20562;-75
2021/12/03 08:02:26;;;;;;;11.80;6.07;;;;;;;;;;4991865;28;20559;-76
2021/12/03 08:04:54;;;;;;;6.03;5.43;;;;;;;;;;4994066;28;20125;-75
2021/12/03 08:07:22;;;;;;;9.90;6.57;;;;;;;;;;4989029;28;20073;-75
2021/12/03 08:09:49;;;;;;;8.23;6.53;;;;;;;;;;5008524;28;20529;-75
2021/12/03 08:12:17;;;;;;;7.90;6.30;;;;;;;;;;4990718;28;20046;-75
2021/12/03 08:14:44;;;;;;;11.00;7.05;;;;;;;;;;5002854;28;20061;-77
2021/12/03 08:17:11;;;;;;;9.95;7.20;;;;;;;;;;4975163;28;20112;-76
2021/12/03 08:19:39;;;;;;;15.07;7.72;;;;;;;;;;5003065;28;20050;-75
2021/12/03 08:22:07;;;;;;;13.18;8.50;;;;;;;;;;5005397;28;20038;-74
2021/12/03 08:24:34;;;;;;;9.90;7.47;;;;;;;;;;4995749;28;20178;-75
2021/12/03 08:27:01;;;;;;;12.00;8.43;;;;;;;;;;5000051;28;20042;-74
2021/12/03 08:29:32;;;;;;;12.43;8.73;;;;;;;;;;4994982;28;20046;-74
2021/12/03 08:31:59;;;;;;;10.85;7.68;;;;;;;;;;4989131;28;20117;-74
2021/12/03 08:34:27;;;;;;;18.38;10.48;;;;;;;;;;4995093;28;20128;-74
2021/12/03 08:36:54;;;;;;;18.65;11.45;;;;;;;;;;4987854;28;20454;-75
2021/12/03 08:39:28;;;;;;;;;;;;;;;;;;4990953;28;20540;-75
2021/12/03 08:41:55;;;;;;;18.80;12.48;;;;;;;;;;4986624;28;19932;-75
2021/12/03 08:44:22;;;;;;;15.73;11.70;;;;;;;;;;4989348;28;20129;-74
2021/12/03 08:46:57;;;;;;;18.02;11.90;;;;;;;;;;4987492;28;20038;-74
2021/12/03 08:49:38;;;;;;;15.05;11.38;;;;;;;;;;4977983;28;20121;-74
2021/12/03 08:52:27;;;;;;;17.73;12.30;;;;;;;;;;4988981;28;20046;-74
2021/12/03 08:54:55;;;;;;;19.00;12.00;;;;;;;;;;4987210;28;20089;-74
2021/12/03 08:57:25;;;;;;;12.80;10.68;;;;;;;;;;5005456;28;20112;-74
2021/12/03 08:59:54;;;;;;;16.00;11.65;;;;;;;;;;5003439;28;20169;-74
2021/12/03 09:02:22;;;;;;;11.95;10.38;;;;;;;;;;5001234;28;20073;-74
2021/12/03 09:04:50;;;;;;;9.90;8.90;;;;;;;;;;5003464;28;20039;-74
2021/12/03 09:07:18;;;;;;;14.20;10.65;;;;;;;;;;4977120;28;20128;-74
2021/12/03 09:09:45;;;;;;;11.98;9.27;;;;;;;;;;4997432;28;20030;-74
2021/12/03 09:12:14;;;;;;;8.23;6.63;;;;;;;;;;5006721;28;20041;-74
2021/12/03 09:14:47;;;;;;;10.23;9.15;;;;;;;;;;5003231;28;20136;-74
2021/12/03 09:18:09;;;;;;;10.45;8.15;;;;;;;;;;4971547;28;20438;-75
2021/12/03 09:22:56;;;;;;;10.68;8.45;;;;;;;;;;4988965;28;20038;-74
2021/12/03 09:25:33;;;;;;;13.48;10.55;;;;;;;;;;4996121;28;20050;-75
2021/12/03 09:28:02;;;;;;;10.98;9.27;;;;;;;;;;4976854;28;20491;-74
2021/12/03 09:30:36;;;;;;;9.98;8.70;;;;;;;;;;5000258;28;20041;-74
2021/12/03 09:33:06;;;;;;;11.10;8.50;;;;;;;;;;5007021;28;20121;-75
2021/12/03 09:35:36;;;;;;;10.32;9.23;;;;;;;;;;5004667;28;20034;-75
2021/12/03 09:38:04;;;;;;;13.18;10.05;;;;;;;;;;5005198;28;20054;-75
2021/12/03 09:40:35;;;;;;;15.18;12.07;;;;;;;;;;4999083;28;20113;-74
2021/12/03 09:43:04;;;;;;;11.43;9.05;;;;;;;;;;4973962;28;20512;-74
2021/12/03 09:45:31;;;;;;;13.30;8.40;;;;;;;;;;5004413;28;20046;-74
2021/12/03 09:48:00;;;;;;;9.63;8.23;;;;;;;;;;4973359;28;20109;-75
2021/12/03 09:50:27;;;;;;;10.70;8.35;;;;;;;;;;5001964;28;20057;-73
2021/12/03 09:55:25;;;;;;;8.35;7.55;;;;;;;;;;4998149;28;20077;-74
2021/12/03 10:00:34;;;;;;;9.75;8.30;;;;;;;;;;5000981;28;20069;-74
2021/12/03 10:11:40;;;;;;;7.22;6.60;;;;;;;;;;4990997;28;20295;-74
2021/12/03 10:17:24;;;;;;;8.25;7.00;;;;;;;;;;4991639;28;20485;-75
2021/12/03 10:20:10;;;;;;;7.95;7.22;;;;;;;;;;4993375;28;20398;-75
2021/12/03 10:50:24;;;;;;;8.90;7.93;;;;;;;;;;4921890;28;20046;-75
2021/12/03 10:53:00;;;;;;;9.02;8.13;;;;;;;;;;4989386;28;20050;-74
2021/12/03 11:06:52;;;;;;;7.65;6.85;;;;;;;;;;4992939;28;20128;-77
2021/12/03 11:12:59;;;;;;;7.10;6.28;;;;;;;;;;4987185;28;20056;-75
2021/12/03 11:29:47;;;;;;;7.97;7.18;;;;;;;;;;4989374;28;20045;-74
2021/12/03 11:35:30;;;;;;;8.18;7.35;;;;;;;;;;4988710;28;20074;-74
2021/12/03 11:41:05;;;;;;;9.20;7.88;;;;;;;;;;4991986;28;20137;-75
2021/12/03 12:19:06;;;;;;;8.05;6.97;;;;;;;;;;4998123;28;20041;-75
2021/12/03 12:25:01;;;;;;;8.32;7.53;;;;;;;;;;4992613;28;20064;-74
2021/12/03 14:09:54;;;;;;;7.60;6.00;;;;;;;;;;4888034;29;20139;-74
2021/12/03 14:56:16;;;;;;;6.85;5.30;;;;;;;;;;4983459;28;20049;-74
2021/12/03 14:58:55;;;;;;;11.68;5.75;;;;;;;;;;4968470;28;20113;-74
2021/12/03 15:01:36;;;;;;;7.43;5.60;;;;;;;;;;4981077;28;20117;-74
2021/12/03 15:04:29;;;;;;;7.13;5.75;;;;;;;;;;4986181;28;20038;-73
2021/12/03 15:09:40;;;;;;;6.93;5.38;;;;;;;;;;4987303;28;20046;-74
2021/12/03 15:23:28;;;;;;;5.30;4.80;;;;;;;;;;4983937;28;20399;-74
2021/12/03 15:28:46;;;;;;;8.10;6.05;;;;;;;;;;4987586;28;20050;-74
2021/12/03 15:31:41;;;;;;;9.43;6.97;;;;;;;;;;4990163;28;20132;-74
2021/12/03 16:04:10;;;;;;;13.65;7.93;;;;;;;;;;4939614;28;20082;-74
2021/12/03 16:11:59;;;;;;;8.13;7.32;;;;;;;;;;4986537;28;20069;-74
2021/12/03 16:22:38;;;;;;;7.57;6.80;;;;;;;;;;4983415;28;20142;-74
2021/12/03 16:25:20;;;;;;;7.38;6.35;;;;;;;;;;4988713;28;20047;-74
2021/12/03 16:44:43;;;;;;;10.52;7.65;;;;;;;;;;4993788;28;20092;-74
2021/12/03 16:52:43;;;;;;;14.77;9.60;;;;;;;;;;4987151;28;20109;-74
2021/12/03 16:55:14;;;;;;;11.57;7.95;;;;;;;;;;4987833;28;20062;-74
2021/12/03 16:57:42;;;;;;;10.57;8.18;;;;;;;;;;4982883;28;20239;-74
2021/12/03 17:00:17;;;;;;;10.77;8.55;;;;;;;;;;4970337;28;20499;-74
2021/12/03 17:02:52;;;;;;;10.43;8.77;;;;;;;;;;4984361;28;20045;-75
2021/12/03 17:05:53;;;;;;;9.90;8.27;;;;;;;;;;4970569;28;20054;-73
2021/12/03 17:08:47;;;;;;;10.88;7.85;;;;;;;;;;4986125;28;20092;-74
2021/12/03 17:16:40;;;;;;;8.45;6.93;;;;;;;;;;4979817;28;20495;-74
2021/12/03 17:49:04;;;;;;;17.30;11.82;;;;;;;;;;4980990;28;20046;-75
2021/12/03 17:54:22;;;;;;;17.60;12.20;;;;;;;;;;4946482;28;20152;-75
2021/12/03 17:56:50;;;;;;;15.20;11.48;;;;;;;;;;4965351;28;20615;-75
2021/12/03 17:59:25;;;;;;;14.35;10.35;;;;;;;;;;4982998;28;20141;-75
2021/12/03 18:04:56;;;;;;;11.07;9.40;;;;;;;;;;4984304;28;20194;-75
2021/12/03 18:55:56;;;;;;;16.25;11.40;;;;;;;;;;4942835;28;20098;-75
2021/12/03 18:58:26;;;;;;;17.67;12.82;;;;;;;;;;4945464;28;20137;-76
2021/12/03 19:00:55;;;;;;;21.40;14.27;;;;;;;;;;4939859;28;20054;-76
2021/12/03 19:06:23;;;;;;;25.55;15.65;;;;;;;;;;4947093;28;20126;-75
2021/12/03 19:09:01;;;;;;;23.15;14.48;;;;;;;;;;4925434;28;20121;-74
2021/12/03 19:11:36;;;;;;;16.67;12.48;;;;;;;;;;4963623;28;20054;-74
2021/12/03 19:14:06;;;;;;;15.88;11.77;;;;;;;;;;4957769;28;20458;-74
2021/12/03 19:16:34;;;;;;;13.23;10.30;;;;;;;;;;4981964;28;20046;-74
2021/12/03 19:19:03;;;;;;;12.60;10.10;;;;;;;;;;4982066;28;20070;-74
2021/12/03 19:24:29;;;;;;;11.98;8.75;;;;;;;;;;4924485;29;20139;-76
2021/12/03 19:26:57;;;;;;;14.27;9.75;;;;;;;;;;4927335;29;20404;-77
2021/12/03 19:29:25;;;;;;;14.32;10.13;;;;;;;;;;4928441;29;20448;-76
2021/12/03 19:31:53;;;;;;;14.95;11.43;;;;;;;;;;4904683;29;20154;-76
2021/12/03 19:34:21;;;;;;;12.13;10.30;;;;;;;;;;4928533;29;20051;-75
2021/12/03 19:36:49;;;;;;;16.88;11.38;;;;;;;;;;4929536;29;20086;-74
2021/12/03 19:39:17;;;;;;;13.55;10.80;;;;;;;;;;4918490;29;20111;-75
2021/12/03 19:41:50;;;;;;;15.77;10.98;;;;;;;;;;4920812;29;20075;-76
2021/12/03 19:44:33;;;;;;;14.73;11.02;;;;;;;;;;4919507;29;20036;-73
2021/12/03 19:47:03;;;;;;;15.30;11.98;;;;;;;;;;4906256;28;20126;-75
2021/12/03 19:52:05;;;;;;;13.85;11.65;;;;;;;;;;4898522;29;20039;-75
2021/12/03 19:54:33;;;;;;;13.40;11.13;;;;;;;;;;4902325;29;20074;-76
2021/12/03 19:57:00;;;;;;;11.77;9.10;;;;;;;;;;4891473;29;20159;-74
2021/12/03 19:59:28;;;;;;;15.35;10.43;;;;;;;;;;4918218;29;20044;-74
2021/12/03 20:01:57;;;;;;;12.07;9.35;;;;;;;;;;4918923;29;20122;-77
2021/12/03 20:04:25;;;;;;;13.85;10.20;;;;;;;;;;4924868;29;20054;-76
2021/12/03 20:06:52;;;;;;;13.93;10.93;;;;;;;;;;4913209;28;20062;-74
2021/12/03 20:09:23;;;;;;;12.88;9.80;;;;;;;;;;4911551;29;20106;-74
2021/12/03 20:11:56;;;;;;;15.00;11.05;;;;;;;;;;4930216;29;20523;-76
2021/12/03 20:14:24;;;;;;;17.33;12.48;;;;;;;;;;4924531;29;20075;-74
2021/12/03 20:17:03;;;;;;;19.00;12.50;;;;;;;;;;4919373;29;20062;-75
2021/12/03 20:19:38;;;;;;;13.23;11.00;;;;;;;;;;4925449;29;20051;-76
2021/12/03 20:22:13;;;;;;;14.52;10.65;;;;;;;;;;4912839;29;20047;-74
2021/12/03 20:27:39;;;;;;;14.63;10.90;;;;;;;;;;4915731;29;20189;-76
2021/12/03 20:30:14;;;;;;;13.43;10.02;;;;;;;;;;4917525;29;20043;-75
2021/12/03 20:32:50;;;;;;;11.40;9.05;;;;;;;;;;4934884;29;20381;-74
2021/12/03 20:37:51;;;;;;;17.77;12.82;;;;;;;;;;4929075;29;20048;-76
2021/12/03 20:40:25;;;;;;;13.13;9.88;;;;;;;;;;4911742;29;20166;-74
2021/12/03 20:43:24;;;;;;;11.20;8.57;;;;;;;;;;4926651;29;20126;-77
2021/12/03 20:51:30;;;;;;;13.88;9.93;;;;;;;;;;4903643;29;20048;-76
2021/12/03 21:10:06;;;;;;;13.43;9.68;;;;;;;;;;4918503;29;20094;-75
2021/12/03 21:12:41;;;;;;;13.05;9.27;;;;;;;;;;4922798;29;20706;-76
2021/12/03 21:18:00;;;;;;;13.95;11.25;;;;;;;;;;4889067;29;20056;-76
2021/12/03 21:20:30;;;;;;;;;;;;;;;;;;4889709;29;20540;-76
2021/12/03 21:23:03;;;;;;;15.85;11.38;;;;;;;;;;4889329;29;19971;-75
2021/12/03 21:25:35;;;;;;;14.75;10.80;;;;;;;;;;4891047;29;20073;-76
2021/12/03 21:41:28;;;;;;;17.65;11.73;;;;;;;;;;4893026;29;20097;-78
2021/12/03 21:44:03;;;;;;;15.10;10.75;;;;;;;;;;4895792;29;20047;-76
2021/12/03 21:46:40;;;;;;;16.63;11.27;;;;;;;;;;4853789;29;20124;-74
2021/12/03 21:49:08;;;;;;;12.93;9.52;;;;;;;;;;4863056;29;20079;-77
2021/12/03 21:51:36;;;;;;;11.00;9.05;;;;;;;;;;4866280;29;20055;-75
2021/12/03 21:54:10;;;;;;;10.50;8.07;;;;;;;;;;4885798;29;20144;-75
2021/12/03 21:56:38;;;;;;;10.02;8.32;;;;;;;;;;4892725;29;20059;-75
2021/12/03 21:59:06;;;;;;;10.90;8.23;;;;;;;;;;4904119;29;20143;-77
2021/12/03 22:01:34;;;;;;;8.07;7.28;;;;;;;;;;4912398;29;20051;-76
2021/12/03 22:04:03;;;;;;;8.98;7.63;;;;;;;;;;4914688;29;20062;-77
2021/12/03 22:06:32;;;;;;;12.60;9.55;;;;;;;;;;4914395;29;20131;-76
2021/12/03 22:09:00;;;;;;;10.50;8.57;;;;;;;;;;4909865;29;20150;-77
2021/12/03 22:11:27;;;;;;;9.95;7.75;;;;;;;;;;4920390;29;20301;-74
2021/12/03 22:13:55;;;;;;;10.40;7.70;;;;;;;;;;4896354;29;20044;-77
2021/12/03 22:16:24;;;;;;;9.32;8.23;;;;;;;;;;4879753;29;20070;-77
2021/12/03 22:18:51;;;;;;;8.80;7.35;;;;;;;;;;4899929;29;20059;-77
2021/12/03 22:21:22;;;;;;;12.77;8.70;;;;;;;;;;4912419;29;20181;-76
2021/12/03 22:23:49;;;;;;;9.82;7.78;;;;;;;;;;4929303;29;20448;-76
2021/12/03 22:26:17;;;;;;;9.95;7.93;;;;;;;;;;4929266;29;20154;-76
2021/12/03 22:28:45;;;;;;;9.57;7.75;;;;;;;;;;4920509;29;20084;-77
2021/12/03 22:31:13;;;;;;;11.20;8.65;;;;;;;;;;4897811;29;20617;-74
2021/12/03 22:33:42;;;;;;;16.17;11.63;;;;;;;;;;4931327;29;20540;-77
2021/12/03 22:36:11;;;;;;;48.38;28.75;;;;;;;;;;4906232;29;20130;-74
2021/12/03 22:38:39;;;;;;;21.45;16.23;;;;;;;;;;4907564;29;20044;-77
2021/12/03 22:41:08;;;;;;;16.13;11.82;;;;;;;;;;4933484;29;20520;-76
2021/12/03 22:43:36;;;;;;;13.90;12.00;;;;;;;;;;4904405;29;20069;-74
2021/12/03 22:53:43;;;;;;;10.20;9.07;;;;;;;;;;4901534;29;20478;-74
2021/12/03 22:56:27;;;;;;;11.60;9.77;;;;;;;;;;4920581;29;20051;-76
2021/12/03 22:58:55;;;;;;;11.23;9.27;;;;;;;;;;4923841;29;20052;-75
2021/12/03 23:01:23;;;;;;;11.00;7.72;;;;;;;;;;4902639;29;20056;-74
2021/12/03 23:03:52;;;;;;;10.95;8.65;;;;;;;;;;4904759;29;20063;-75
2021/12/03 23:06:20;;;;;;;9.65;8.00;;;;;;;;;;4918406;29;20512;-75
2021/12/03 23:08:47;;;;;;;8.63;7.15;;;;;;;;;;4919128;29;20122;-74
2021/12/03 23:11:15;;;;;;;10.65;7.88;;;;;;;;;;4919874;29;20538;-76
2021/12/03 23:13:43;;;;;;;9.25;7.65;;;;;;;;;;4902551;29;20125;-77
2021/12/03 23:16:10;;;;;;;9.95;7.75;;;;;;;;;;4926722;29;20051;-77
2021/12/03 23:18:38;;;;;;;8.93;6.82;;;;;;;;;;4905920;29;20051;-74
2021/12/03 23:21:09;;;;;;;12.75;7.15;;;;;;;;;;4922559;29;20432;-77
2021/12/03 23:23:38;;;;;;;10.77;7.07;;;;;;;;;;4904583;29;20504;-75
2021/12/03 23:26:07;;;;;;;9.20;6.50;;;;;;;;;;4921160;29;20096;-75
2021/12/03 23:28:35;;;;;;;6.93;6.22;;;;;;;;;;4904390;29;20452;-75
2021/12/03 23:31:04;;;;;;;7.90;6.60;;;;;;;;;;4919925;29;20088;-74
2021/12/03 23:33:33;;;;;;;12.07;7.50;;;;;;;;;;4921674;29;20063;-75
2021/12/03 23:36:02;;;;;;;8.00;6.75;;;;;;;;;;4921466;29;20159;-73
2021/12/03 23:38:29;;;;;;;10.18;7.47;;;;;;;;;;4919619;29;20047;-74
2021/12/03 23:41:17;;;;;;;7.97;6.85;;;;;;;;;;4920618;29;20136;-75
2021/12/03 23:43:44;;;;;;;10.60;7.82;;;;;;;;;;4903467;29;20063;-75
2021/12/03 23:46:12;;;;;;;9.27;6.93;;;;;;;;;;4918241;29;20076;-73
2021/12/03 23:48:39;;;;;;;10.32;7.93;;;;;;;;;;4887020;29;20055;-76
2021/12/03 23:51:07;;;;;;;7.28;6.18;;;;;;;;;;4919169;29;20612;-73
2021/12/03 23:53:35;;;;;;;8.13;5.75;;;;;;;;;;4888685;29;20055;-75
2021/12/03 23:56:03;;;;;;;8.20;6.63;;;;;;;;;;4903553;29;21277;-76
2021/12/03 23:58:34;;;;;;;9.40;6.57;;;;;;;;;;4909471;29;20058;-76
